Sonic Adventure (DX): Overall Rankings

Records: Times | Rings | Scores | Races | Bosses | Freestyle
Leaders: Times | Rings | Scores | Races | Bosses | Freestyle | Overall
Rank Player Percent Points Date
1 Gamepro011 97.7% 409 01-12-21
2 Sonicspeedruner 97.6% 422 01-12-21
3 DarkPolarNight 96.3% 662 01-12-21
4 Jawzun 92.7% 1313 01-12-21
5 Dashjump 91.2% 1594 01-12-21
6 Avento128bits 89.2% 1949 01-12-21
7 DarkspinesSonic 89.2% 1961 01-12-21
8 ike6252 88.9% 1999 01-12-21
9 F-Man 87.1% 2336 01-12-21
10 Coolfansonic 86.9% 2365 01-12-21
11 TheRealShadnic 84.6% 2779 01-12-21
12 HyperSonic7701 83.8% 2925 01-12-21
13 yoshifan 82.1% 3248 01-12-21
14 Nim 81.9% 3284 01-12-21
15 frankoredstrato 81.6% 3330 01-12-21
16 francisco 80.7% 3501 01-12-21
17 Marth 80.3% 3561 01-12-21
18 InferSaime 79.2% 3775 01-12-21
19 PfoSonic 78.6% 3869 01-12-21
20 Paragod 78.3% 3937 01-12-21
21 THC98 77.4% 4095 01-12-21
22 Stefan 75.0% 4539 01-12-21
23 Dekuboy 73.8% 4743 01-12-21
24 RPGnutter 72.9% 4907 01-12-21
25 bertin 72.7% 4942 01-12-21
26 sonicam 70.7% 5310 01-12-21
27 drminus 69.2% 5586 01-12-21
28 chaos shadow 68.7% 5680 01-12-21
29 chainchump 65.4% 6279 01-12-21
30 Combo 64.7% 6396 01-12-21
31 SkyLights 63.5% 6615 01-12-21
32 xXMegaManXx 62.0% 6894 01-12-21
33 Diamond 61.6% 6958 01-12-21
34 Auriman1 59.5% 7349 01-12-21
34 GerbilSoft 59.5% 7349 01-12-21
36 OmegaDJ 59.4% 7372 01-12-21
37 magnum12 58.6% 7506 01-12-21
38 Thorn 56.4% 7910 01-12-21
39 P1 Pause 56.1% 7962 01-12-21
40 mike89 55.0% 8165 01-12-21
41 Dave Cramer 53.2% 8490 01-12-21
42 Groudon199 53.0% 8524 01-12-21
43 Parax 52.6% 8604 01-12-21
44 SPVLABS 52.0% 8707 01-12-21
45 Shadow Jacky 52.0% 8711 01-12-21
46 CoEmpathy 49.2% 9221 01-12-21
47 Zurggriff 48.5% 9340 01-12-21
48 Niczur 47.1% 9605 01-12-21
49 Psymar 46.9% 9628 01-12-21
50 Arch 46.1% 9775 01-12-21
51 Chao_Fan 45.3% 9927 01-12-21
52 mauserman 44.7% 10032 01-12-21
53 Quartz 44.1% 10150 01-12-21
54 teamblackarms 43.5% 10261 01-12-21
55 Psyknux 42.8% 10386 01-12-21
56 James_Bertolli 42.2% 10482 01-12-21
57 Cyan Ryan 42.2% 10488 01-12-21
58 NintenDan 41.9% 10549 01-12-21
59 Turbos 41.2% 10663 01-12-21
60 Webber3000 41.2% 10669 01-12-21
61 Ring Rush 41.1% 10698 01-12-21
62 Fr3nZy 41.0% 10714 01-12-21
63 Cream147 40.9% 10721 01-12-21
64 Siavash Tazari 40.7% 10766 01-12-21
65 videogamemaster777 40.7% 10769 01-12-21
66 buddychaos0415 40.1% 10875 01-12-21
67 SadisticMystic 39.5% 10973 01-12-21
68 ethmar 39.1% 11047 01-12-21
69 eggFL 38.6% 11137 01-12-21
70 Calfd 37.9% 11264 01-12-21
71 SB737 37.1% 11424 01-12-21
72 supersonic465 36.7% 11497 01-12-21
73 supersonicfan 36.0% 11611 01-12-21
74 FuzZerd 34.8% 11830 01-12-21
75 Aitamen 34.4% 11903 01-12-21
76 BigAL49 34.0% 11978 01-12-21
77 elecmouse101 33.9% 11988 01-12-21
78 danieldude 33.9% 11996 01-12-21
79 Austinf 33.3% 12108 01-12-21
80 metanightmare22 32.8% 12199 01-12-21
81 dabestgamer 32.4% 12261 01-12-21
82 MiStEr_ShAoLiN 32.2% 12310 01-12-21
83 Andrea Ritsu 31.4% 12445 01-12-21
84 itsPersonnal 31.2% 12496 01-12-21
85 Cybrax 30.3% 12644 01-12-21
86 JamminX42 30.3% 12645 01-12-21
87 SilvertheAlmighty 30.3% 12657 01-12-21
88 WeegeeZV 30.2% 12675 01-12-21
89 Mastakirby 29.9% 12730 01-12-21
90 VMU Player Banned 28.3% 13009 01-12-21
91 Staf 27.9% 13088 01-12-21
92 Omega Rafael Santos 27.8% 13101 01-12-21
93 The T 27.4% 13169 01-12-21
94 EngiNerd 27.3% 13203 01-12-21
95 lordmetalsonic 26.8% 13282 01-12-21
96 Hipertails12 26.5% 13343 01-12-21
97 welldooder64 26.2% 13397 01-12-21
98 GreatStar 26.0% 13435 01-12-21
99 The Great Lord Mick 25.8% 13460 01-12-21
100 Sondow 25.7% 13487 01-12-21
101 LinksDarkArrows 25.6% 13508 01-12-21
102 Skylace 24.6% 13691 01-12-21
103 a_moustache 23.7% 13847 01-12-21
104 Rolken 23.2% 13947 01-12-21
105 Kogen Player Banned 21.4% 14258 01-12-21
105 Spinballwizard 21.4% 14258 01-12-21
107 Xia 21.4% 14260 01-12-21
108 f0rever_zer0 21.1% 14328 01-12-21
109 Twilisailor 21.0% 14338 01-12-21
110 Don 20.9% 14351 01-12-21
111 Miles9999 20.8% 14372 01-12-21
112 Cutiefox 20.8% 14376 01-12-21
113 Game_Complete 20.7% 14388 01-12-21
114 iden1 20.6% 14406 01-12-21
115 andres430 20.2% 14486 01-12-21
116 Cruizer 19.9% 14535 01-12-21
117 iSonicKid2K 19.8% 14549 01-12-21
118 Pokemonmaster888 19.6% 14587 01-12-21
119 SADXTryHard 19.5% 14604 01-12-21
120 GarnetPrincess 19.1% 14678 01-12-21
121 N 18.9% 14716 01-12-21
122 AxlThunder 18.7% 14765 01-12-21
123 knuckles_sonic8 18.3% 14822 01-12-21
124 Team_Yoshi 17.9% 14910 01-12-21
125 KinkyCadence 17.8% 14921 01-12-21
126 The Knuckles Chao 17.7% 14941 01-12-21
127 Termon 17.5% 14984 01-12-21
128 LittleBigness 17.3% 15012 01-12-21
129 FoxBoy 17.3% 15017 01-12-21
130 SonicWinDX 17.2% 15023 01-12-21
131 Drakodan 16.5% 15164 01-12-21
132 Sonic Singularity 15.5% 15347 01-12-21
133 paulie9990 14.7% 15482 01-12-21
134 SilverSonic 14.1% 15585 01-12-21
135 MPit08 14.1% 15596 01-12-21
136 sonicd5 14.0% 15610 01-12-21
137 Mo Player Banned 13.8% 15650 01-12-21
138 koinu93 13.6% 15686 01-12-21
139 Cod4Scopes 13.2% 15749 01-12-21
140 HyperSonic64 13.1% 15770 01-12-21
141 Jerzia 13.1% 15782 01-12-21
142 Modest 13.0% 15788 01-12-21
143 booo95 13.0% 15789 01-12-21
144 Hunters13 13.0% 15795 01-12-21
145 Chawkk 12.8% 15820 01-12-21
146 SuperSonic101 12.7% 15852 01-12-21
147 Maxinfamily 12.6% 15873 01-12-21
148 R3FR4G 12.5% 15879 01-12-21
149 PsyBorg 12.4% 15910 01-12-21
150 LilZero 12.2% 15936 01-12-21
151 Kanimayo_Jp 12.2% 15937 01-12-21
152 Flying Fox 12.2% 15938 01-12-21
153 BrokenArthritis 12.0% 15966 01-12-21
154 Therio 11.7% 16034 01-12-21
155 sonicspeed 11.5% 16062 01-12-21
156 douglas 11.4% 16092 01-12-21
157 SonicAD 11.3% 16094 01-12-21
158 Matt_TY 11.1% 16142 01-12-21
158 thewaytodawnnn 11.1% 16142 01-12-21
160 ModifiedMonkee 11.0% 16161 01-12-21
161 Cooljay 10.5% 16247 01-12-21
162 SuperBlitzCraig 10.4% 16264 01-12-21
163 joecoolgames 10.4% 16273 01-12-21
164 SeaWolf 10.3% 16281 01-12-21
165 videogamer1014 10.1% 16323 01-12-21
166 AC-Tygo 9.9% 16360 01-12-21
167 welshmoose05 9.8% 16377 01-12-21
168 OddCook 9.6% 16408 01-12-21
169 crazy1993 9.5% 16425 01-12-21
170 TFEC Headshot 9.5% 16431 01-12-21
171 Mcshuggets 9.3% 16457 01-12-21
172 Mariobutch 9.3% 16458 01-12-21
173 niscool 9.1% 16509 01-12-21
174 Irregular Zero 9.0% 16521 01-12-21
175 nuckrieg 8.9% 16534 01-12-21
176 Shadowthegreat 8.7% 16573 01-12-21
177 superjupi 8.7% 16575 01-12-21
178 SirTobbii 8.6% 16584 01-12-21
179 Powerjohn25 8.4% 16626 01-12-21
180 sonamyfan666 8.4% 16628 01-12-21
181 iarebored 8.3% 16639 01-12-21
182 SaviourDC 8.3% 16649 01-12-21
183 SonicKnuckles 8.3% 16655 01-12-21
184 Badlex727 8.2% 16663 01-12-21
185 Werey 8.1% 16688 01-12-21
186 adf 7.9% 16714 01-12-21
187 Megaman EXE565 7.6% 16766 01-12-21
188 ArcticDragon 7.5% 16784 01-12-21
189 Platformer 7.3% 16833 01-12-21
190 Zethor 7.2% 16844 01-12-21
191 timpkmn89 7.2% 16845 01-12-21
192 Swift Hobo 7.1% 16859 01-12-21
193 FocusSight64 7.1% 16862 01-12-21
194 Vicklaw 7.0% 16875 01-12-21
195 wheatrich 7.0% 16882 01-12-21
196 Rickyman48 6.8% 16910 01-12-21
197 KitsuneYamaro 6.7% 16931 01-12-21
198 Sm4sh 6.7% 16944 01-12-21
199 Triseena 6.5% 16971 01-12-21
200 CyberShadow 6.3% 17010 01-12-21
201 Destroyer121121 6.3% 17011 01-12-21
201 Starlight Sable 6.3% 17011 01-12-21
203 slade23 6.3% 17015 01-12-21
204 dShadow 6.2% 17031 01-12-21
205 IsisDazs 6.1% 17046 01-12-21
206 BlankTH 5.9% 17083 01-12-21
207 Monkeh 5.7% 17112 01-12-21
208 SonicU260 5.6% 17143 01-12-21
209 Richied 5.5% 17154 01-12-21
210 Swinkly 5.5% 17160 01-12-21
211 DaDude 5.5% 17161 01-12-21
212 Crispian 5.5% 17164 01-12-21
213 Zip 5.3% 17184 01-12-21
214 VeritasDL 5.1% 17222 01-12-21
215 tal39h 5.0% 17244 01-12-21
216 ALundstrom10 4.9% 17256 01-12-21
217 Kirbymon30 4.9% 17260 01-12-21
218 soniccoloursunleashed 4.7% 17293 01-12-21
219 Drflash55 4.7% 17305 01-12-21
220 Bass 4.6% 17321 01-12-21
221 neaolas 4.5% 17337 01-12-21
221 Yish 4.5% 17337 01-12-21
223 zapp 4.5% 17342 01-12-21
224 UninspiredUsername 4.4% 17349 01-12-21
225 superiorsonic 4.4% 17356 01-12-21
226 Sonicsuperstar1 4.4% 17357 01-12-21
227 gamefreak1292 4.3% 17368 01-12-21
228 Sora_yx 4.2% 17393 01-12-21
229 Chaos_Overlord 4.0% 17433 01-12-21
230 TakaRikka 3.9% 17449 01-12-21
231 Valfore 3.8% 17455 01-12-21
232 Dage4Aquatic 3.8% 17468 01-12-21
233 ShinigamiMachine 3.7% 17483 01-12-21
234 Regano1000 3.6% 17503 01-12-21
235 MK 3.5% 17515 01-12-21
236 Ace747 3.5% 17527 01-12-21
237 Jua Rever 3.3% 17558 01-12-21
238 Illidan 3.1% 17598 01-12-21
239 Venick409 3.1% 17599 01-12-21
240 HHNNBBHHN 3.0% 17602 01-12-21
241 Brian_pso 3.0% 17605 01-12-21
242 nman36 3.0% 17609 01-12-21
242 Sithwarrior26 3.0% 17609 01-12-21
244 Egor305 2.8% 17637 01-12-21
245 ArthurVGCP 2.8% 17639 01-12-21
246 ingx24 2.8% 17640 01-12-21
246 TheChaosEmeraIds 2.8% 17640 01-12-21
248 SkyBon 2.8% 17649 01-12-21
249 Nickson98 2.8% 17650 01-12-21
250 dekki1234 2.7% 17657 01-12-21
250 FSSRandomvids 2.7% 17657 01-12-21
252 Fozer 2.6% 17673 01-12-21
253 sonic29887 2.6% 17677 01-12-21
254 Colomb_30 2.6% 17685 01-12-21
255 TheUltraBlur 2.6% 17686 01-12-21
256 Aiko 2.6% 17688 01-12-21
257 1stKirbyever 2.5% 17695 01-12-21
258 TimTH 2.4% 17713 01-12-21
259 Th4tN1nj4Turtl3 2.3% 17740 01-12-21
260 Cort_pso 2.2% 17747 01-12-21
261 Doom-9 2.2% 17753 01-12-21
262 ieatatsonic 2.2% 17757 01-12-21
263 Mariosonic15 2.1% 17766 01-12-21
264 MStitomix 2.1% 17778 01-12-21
265 HermitHelmet 2.0% 17782 01-12-21
266 arcfx1985 2.0% 17785 01-12-21
267 SuperSonic71087 2.0% 17796 01-12-21
268 Artie 1.9% 17803 01-12-21
268 Got4n 1.9% 17803 01-12-21
270 Questionguy555 1.9% 17809 01-12-21
271 Jose_15 1.9% 17814 01-12-21
272 djmat 1.8% 17826 01-12-21
273 SuperSonicfan9595 1.8% 17829 01-12-21
274 sonicandamy Player Banned 1.7% 17849 01-12-21
275 LancexExWx 1.7% 17854 01-12-21
276 Paixii 1.6% 17857 01-12-21
277 son1cgu1tar 1.6% 17861 01-12-21
278 Heroes_Hater 1.6% 17871 01-12-21
279 BallzeH 1.5% 17878 01-12-21
280 Jamixesa 1.5% 17882 01-12-21
281 Mankster101 1.5% 17885 01-12-21
282 BecauseWarAnvil 1.4% 17891 01-12-21
283 Xandre69 1.4% 17892 01-12-21
284 Crydio 1.4% 17900 01-12-21
284 Shanekilz 1.4% 17900 01-12-21
286 SpiritDragon1995 1.4% 17903 01-12-21
287 MarewBFN 1.3% 17917 01-12-21
288 stanski 1.3% 17920 01-12-21
289 Sonique Hedgehog 1.3% 17925 01-12-21
290 Blue Infamy 1.2% 17937 01-12-21
290 p0ker 1.2% 17937 01-12-21
292 ErrortheCucco 1.1% 17948 01-12-21
293 Arthas 1.1% 17950 01-12-21
294 Rikum22 1.1% 17951 01-12-21
295 sonic1001 1.1% 17959 01-12-21
296 AJSIV 1.0% 17964 01-12-21
297 syco1098 1.0% 17965 01-12-21
298 IDGeek121 1.0% 17967 01-12-21
299 Sonic the Hedgehod16 1.0% 17968 01-12-21
299 WingedInsignia 1.0% 17968 01-12-21
301 ASINISTERTACO 1.0% 17975 01-12-21
302 sonicfan9 0.9% 17982 01-12-21
303 BlackArmsShadow 0.9% 17992 01-12-21
303 themachoman202 0.9% 17992 01-12-21
305 shadowblast63 Player Banned 0.8% 18000 01-12-21
306 Fivavoa 0.8% 18001 01-12-21
307 Ben1502 0.8% 18003 01-12-21
307 Greham Adelphis 0.8% 18003 01-12-21
307 Mr. Jones 0.8% 18003 01-12-21
310 MastaToken 0.8% 18004 01-12-21
310 TommyeAsY 0.8% 18004 01-12-21
312 darkstarblaze 0.8% 18005 01-12-21
313 ptorflaxendrosis 0.8% 18011 01-12-21
314 FlandreScarlet9999vr 0.8% 18012 01-12-21
315 Gvozdevik 0.8% 18013 01-12-21
316 Zeldocto 0.8% 18016 01-12-21
317 Knuckles 0.8% 18017 01-12-21
318 BeeAwwb 0.7% 18021 01-12-21
319 KaM Mark MaK 0.7% 18024 01-12-21
320 ShadouZaHejjihoggu 0.7% 18027 01-12-21
321 Sonic The Star 0.6% 18036 01-12-21
322 darkersupershadic 0.6% 18037 01-12-21
323 Sogeking 0.6% 18038 01-12-21
324 Sonic62 0.6% 18040 01-12-21
325 Sarger001 0.6% 18044 01-12-21
325 SonicK100 0.6% 18044 01-12-21
327 dragondragon18 0.6% 18045 01-12-21
327 Grady219 0.6% 18045 01-12-21
329 Shadygamerfreak 0.6% 18047 01-12-21
330 Jawaah 0.6% 18051 01-12-21
331 Antek 0.5% 18055 01-12-21
331 SpinDashMaster 0.5% 18055 01-12-21
333 Klaus 0.5% 18057 01-12-21
333 SilverK 0.5% 18057 01-12-21
335 BioShadow 0.5% 18063 01-12-21
336 Videogamer123 0.5% 18069 01-12-21
337 IcKY 0.5% 18072 01-12-21
338 oTaiIilLsS 0.4% 18079 01-12-21
339 isaihtb11 0.4% 18082 01-12-21
340 OhNoes! 0.4% 18084 01-12-21
341 Mad Andy 0.4% 18086 01-12-21
342 S-MS32X-S 0.4% 18087 01-12-21
342 zaktu40 0.4% 18087 01-12-21
344 gaara1234 0.4% 18090 01-12-21
345 gamed00d 0.3% 18095 01-12-21
346 Mister_Slick 0.3% 18100 01-12-21
347 Sonic06Fan 0.3% 18103 01-12-21
348 Rush Hero 0.3% 18106 01-12-21
349 ChaosNexuss 0.3% 18107 01-12-21
350 SonicMega167 0.2% 18112 01-12-21
351 Iwannabelink 0.2% 18115 01-12-21
351 sonknuck23 0.2% 18115 01-12-21
353 DanielTheFalcon 0.2% 18124 01-12-21
353 gamer1245 0.2% 18124 01-12-21
355 Burningskull123 0.1% 18131 01-12-21
356 Sonicontherun 0.1% 18142 01-12-21
357 Lil_Dude 0.1% 18144 01-12-21
358 antiwwe 0.0% 18148 01-12-21
359 Cbwade15 0.0% 18152 01-12-21
359 Genuine Hedgehog 0.0% 18152 01-12-21
361 Tyrouble 0.0% 18156 01-12-21
362 MakoHNM 0.0% 18163 01-12-21
362 MegabombBlade 0.0% 18163 01-12-21
362 neji_hyuuga 0.0% 18163 01-12-21
362 Over 0.0% 18163 01-12-21
362 sdj6707 Player Banned 0.0% 18163 01-12-21
362 Tran Sonic Fan Player Banned 0.0% 18163 01-12-21

This page is using the New Data Table System. [FUTURE]

Game ID: 3 | Category ID: 10
Hits: 79,240 | Hits This Month: 100 | DB Calls: 21 | Mem Usage: 1.06 MB | Time: 0.04s | Printable

The Sonic Center v3.9
Copyright 2003-2011 by The Sonic Center Team.